createdAt,value
2022-10-01T00:04:28.339Z,4.32
2022-10-01T00:09:30.576Z,4.70
2022-10-01T00:14:32.180Z,4.75
2022-10-01T00:19:33.783Z,4.43
2022-10-01T00:24:37.620Z,5.35
2022-10-01T00:29:40.711Z,5.43
2022-10-01T00:34:42.187Z,5.82
2022-10-01T00:39:44.407Z,6.38
2022-10-01T00:44:46.364Z,6.20
2022-10-01T00:49:52.856Z,6.25
2022-10-01T00:55:02.156Z,6.20
2022-10-01T01:00:08.389Z,6.82
2022-10-01T01:05:12.127Z,7.28
2022-10-01T01:10:16.236Z,7.07
2022-10-01T01:15:26.142Z,7.57
2022-10-01T01:20:31.106Z,7.40
2022-10-01T01:26:21.741Z,7.72
2022-10-01T01:31:30.732Z,7.60
2022-10-01T01:36:38.046Z,7.13
2022-10-01T01:41:50.063Z,7.30
2022-10-01T01:46:55.085Z,8.95
2022-10-01T01:52:14.268Z,7.88
2022-10-01T01:57:20.205Z,7.25
2022-10-01T02:02:33.260Z,8.30
2022-10-01T02:07:42.309Z,8.18
2022-10-01T02:13:11.242Z,7.72
2022-10-01T02:18:26.037Z,8.63
2022-10-01T02:23:33.580Z,10.20
2022-10-01T02:28:38.867Z,10.27
2022-10-01T02:33:43.089Z,9.52
2022-10-01T02:38:46.710Z,8.82
2022-10-01T02:44:00.131Z,8.95
2022-10-01T02:49:02.833Z,9.10
2022-10-01T02:54:13.269Z,9.57
2022-10-01T02:59:14.821Z,10.55
2022-10-01T03:04:16.409Z,9.82
2022-10-01T03:09:17.913Z,9.85
2022-10-01T03:14:19.488Z,11.00
2022-10-01T03:19:21.175Z,10.75
2022-10-01T03:24:22.848Z,11.60
2022-10-01T03:29:25.712Z,11.48
2022-10-01T03:34:27.464Z,11.57
2022-10-01T03:39:29.050Z,11.63
2022-10-01T03:44:30.588Z,12.38
2022-10-01T03:49:32.180Z,14.00
2022-10-01T03:54:33.734Z,14.98
2022-10-01T03:59:36.131Z,13.98
2022-10-01T04:04:37.720Z,13.90
2022-10-01T04:09:39.254Z,14.07
2022-10-01T04:14:40.783Z,13.98
2022-10-01T04:19:42.304Z,13.93
2022-10-01T04:24:43.986Z,14.30
2022-10-01T04:29:45.501Z,14.40
2022-10-01T04:34:53.080Z,14.60
2022-10-01T04:39:54.798Z,14.80
2022-10-01T04:44:57.314Z,15.65
2022-10-01T04:49:58.812Z,16.20
2022-10-01T04:55:00.364Z,16.75
2022-10-01T05:00:04.024Z,16.90
2022-10-01T05:05:07.433Z,16.90
2022-10-01T05:10:12.564Z,18.05
2022-10-01T05:15:15.424Z,18.00
2022-10-01T05:20:20.069Z,18.00
2022-10-01T05:25:22.033Z,18.10
2022-10-01T05:30:26.544Z,18.30
2022-10-01T05:35:29.218Z,18.00
2022-10-01T05:40:31.186Z,18.00
2022-10-01T05:45:33.772Z,15.85
2022-10-01T05:50:40.315Z,15.27
2022-10-01T05:55:42.103Z,16.00
2022-10-01T06:00:44.122Z,16.45
2022-10-01T06:05:46.105Z,15.35
2022-10-01T06:10:48.798Z,15.43
2022-10-01T06:15:52.888Z,15.30
2022-10-01T06:20:54.449Z,15.10
2022-10-01T06:25:56.123Z,14.82
2022-10-01T06:30:57.693Z,13.70
2022-10-01T06:35:59.910Z,15.32
2022-10-01T06:41:03.761Z,15.95
2022-10-01T06:46:05.586Z,15.65
2022-10-01T06:51:08.571Z,15.90
2022-10-01T06:56:10.067Z,15.23
2022-10-01T07:01:11.689Z,15.25
2022-10-01T07:06:13.269Z,14.30
2022-10-01T07:11:14.847Z,15.32
2022-10-01T07:16:16.469Z,15.15
2022-10-01T07:21:18.015Z,14.80
2022-10-01T07:26:19.550Z,15.13
2022-10-01T07:31:21.651Z,15.15
2022-10-01T07:36:23.236Z,15.45
2022-10-01T07:41:24.935Z,14.32
2022-10-01T07:46:26.580Z,14.60
2022-10-01T07:51:29.252Z,14.73
2022-10-01T07:56:31.028Z,13.02
2022-10-01T08:01:33.350Z,13.82
2022-10-01T08:06:35.245Z,11.07
2022-10-01T08:11:38.002Z,11.18
2022-10-01T08:16:41.039Z,11.35
2022-10-01T08:21:42.902Z,10.85
2022-10-01T08:26:44.592Z,11.80
2022-10-01T08:31:46.208Z,14.18
2022-10-01T08:36:51.659Z,10.48
2022-10-01T08:42:17.443Z,10.77
2022-10-01T08:47:35.481Z,9.80
2022-10-01T08:52:49.052Z,10.18
2022-10-01T08:58:00.310Z,9.38
2022-10-01T09:03:06.135Z,10.00
2022-10-01T09:08:43.667Z,9.15
2022-10-01T09:14:03.291Z,9.95
2022-10-01T09:19:19.131Z,8.80
2022-10-01T09:24:56.039Z,9.30
2022-10-01T09:30:21.393Z,8.38
2022-10-01T09:35:29.022Z,8.73
2022-10-01T09:40:43.743Z,9.13
2022-10-01T09:45:47.148Z,9.13
2022-10-01T09:50:56.052Z,8.40
2022-10-01T09:56:04.054Z,7.97
2022-10-01T10:01:17.779Z,7.63
2022-10-01T10:06:27.193Z,8.05
2022-10-01T10:11:31.566Z,8.13
2022-10-01T10:16:37.227Z,6.40
2022-10-01T10:21:51.972Z,6.72
2022-10-01T10:26:57.282Z,6.47
2022-10-01T10:32:03.159Z,5.90
2022-10-01T10:37:13.804Z,5.22
2022-10-01T10:42:15.833Z,4.90
2022-10-01T10:47:21.132Z,7.30
2022-10-01T10:52:29.989Z,5.63
2022-10-01T10:57:36.647Z,25.45
2022-10-01T11:02:41.035Z,9.68
2022-10-01T11:07:45.163Z,4.63
2022-10-01T11:12:49.401Z,7.80
2022-10-01T11:18:05.232Z,3.00
2022-10-01T11:23:57.570Z,2.65
2022-10-01T11:29:30.301Z,2.33
2022-10-01T11:34:59.455Z,2.10
2022-10-01T11:40:13.124Z,1.83
2022-10-01T11:45:21.410Z,1.50
2022-10-01T11:50:31.280Z,1.42
2022-10-01T11:55:59.526Z,1.48
2022-10-01T12:01:11.755Z,1.60
2022-10-01T12:06:14.782Z,1.33
2022-10-01T12:11:21.552Z,15.05
2022-10-01T12:16:46.758Z,12.45
2022-10-01T12:22:15.305Z,2.40
2022-10-01T12:27:35.507Z,1.58
2022-10-01T12:33:08.777Z,1.42
2022-10-01T12:38:34.913Z,1.95
2022-10-01T12:43:42.472Z,3.65
2022-10-01T12:49:12.982Z,4.10
2022-10-01T12:54:42.836Z,1.35
2022-10-01T12:59:59.217Z,1.85
2022-10-01T13:05:24.646Z,1.40
2022-10-01T13:10:54.113Z,1.55
2022-10-01T13:15:59.831Z,1.40
2022-10-01T13:21:20.004Z,2.10
2022-10-01T13:26:41.738Z,2.08
2022-10-01T13:31:58.591Z,1.38
2022-10-01T13:37:17.721Z,1.23
2022-10-01T13:42:24.570Z,1.50
2022-10-01T13:47:27.847Z,3.97
2022-10-01T13:52:31.671Z,1.90
2022-10-01T13:57:37.228Z,1.58
2022-10-01T14:02:42.512Z,1.58
2022-10-01T14:07:47.681Z,1.20
2022-10-01T14:13:09.089Z,1.30
2022-10-01T14:18:21.605Z,1.30
2022-10-01T14:23:35.843Z,2.13
2022-10-01T14:29:07.038Z,1.58
2022-10-01T14:34:24.200Z,1.35
2022-10-01T14:39:29.643Z,1.70
2022-10-01T14:44:38.005Z,2.85
2022-10-01T14:49:39.587Z,4.40
2022-10-01T14:54:51.402Z,1.73
2022-10-01T14:59:53.918Z,1.40
2022-10-01T15:04:57.276Z,1.50
2022-10-01T15:10:07.167Z,2.00
2022-10-01T15:15:39.796Z,1.58
2022-10-01T15:20:59.496Z,1.42
2022-10-01T15:26:04.967Z,2.28
2022-10-01T15:31:07.079Z,1.77
2022-10-01T15:36:15.317Z,1.48
2022-10-01T15:41:32.516Z,1.65
2022-10-01T15:46:35.495Z,1.65
2022-10-01T15:52:22.033Z,1.65
2022-10-01T15:57:25.684Z,1.60
2022-10-01T16:02:30.796Z,1.60
2022-10-01T16:07:34.850Z,2.10
2022-10-01T16:12:36.545Z,1.90
2022-10-01T16:17:38.813Z,1.50
2022-10-01T16:22:40.802Z,1.25
2022-10-01T16:27:58.207Z,1.55
2022-10-01T16:33:02.371Z,1.50
2022-10-01T16:38:08.252Z,1.70
2022-10-01T16:43:24.239Z,1.42
2022-10-01T16:48:25.848Z,1.30
2022-10-01T16:53:27.820Z,1.33
2022-10-01T16:58:29.415Z,1.40
2022-10-01T17:03:30.920Z,1.20
2022-10-01T17:08:32.511Z,0.98
2022-10-01T17:13:34.065Z,1.05
2022-10-01T17:18:35.586Z,1.30
2022-10-01T17:23:37.114Z,1.13
2022-10-01T17:28:38.707Z,1.08
2022-10-01T17:33:40.235Z,1.20
2022-10-01T17:38:42.289Z,1.42
2022-10-01T17:43:43.805Z,1.45
2022-10-01T17:48:47.847Z,1.42
2022-10-01T17:53:49.450Z,1.25
2022-10-01T17:58:53.062Z,1.20
2022-10-01T18:03:55.664Z,1.20
2022-10-01T18:08:57.257Z,0.98
2022-10-01T18:13:59.120Z,1.10
2022-10-01T18:24:24.287Z,0.90
2022-10-01T18:29:27.540Z,1.10
2022-10-01T18:34:38.322Z,1.15
2022-10-01T18:39:43.157Z,1.02
2022-10-01T18:44:50.652Z,0.73
2022-10-01T18:50:25.701Z,0.98
2022-10-01T18:55:51.696Z,0.80
2022-10-01T19:01:11.636Z,1.00
2022-10-01T19:06:41.176Z,0.80
2022-10-01T19:12:01.411Z,1.17
2022-10-01T19:17:40.077Z,0.88
2022-10-01T19:23:02.941Z,0.90
2022-10-01T19:28:23.280Z,0.80
2022-10-01T19:33:25.092Z,1.02
2022-10-01T19:38:34.042Z,1.10
2022-10-01T19:43:49.873Z,0.90
2022-10-01T19:49:12.800Z,0.70
2022-10-01T19:54:17.484Z,0.70
2022-10-01T19:59:20.740Z,0.70
2022-10-01T20:04:40.081Z,0.70
2022-10-01T20:09:45.701Z,0.70
2022-10-01T20:15:09.174Z,0.80
2022-10-01T20:20:23.374Z,0.88
2022-10-01T20:25:32.091Z,0.85
2022-10-01T20:30:44.798Z,0.80
2022-10-01T20:36:02.963Z,0.80
2022-10-01T20:41:14.603Z,0.63
2022-10-01T20:46:25.623Z,0.60
2022-10-01T20:51:35.996Z,0.50
2022-10-01T20:56:59.852Z,0.70
2022-10-01T21:02:10.919Z,0.80
2022-10-01T21:07:37.796Z,0.68
2022-10-01T21:12:44.471Z,0.70
2022-10-01T21:18:09.270Z,0.70
2022-10-01T21:23:53.437Z,0.85
2022-10-01T21:29:24.321Z,0.80
2022-10-01T21:34:43.272Z,0.68
2022-10-01T21:40:23.717Z,0.75
2022-10-01T21:45:29.872Z,0.70
2022-10-01T21:50:51.945Z,0.80
2022-10-01T21:56:12.421Z,0.90
2022-10-01T22:01:46.213Z,0.85
2022-10-01T22:06:51.469Z,0.88
2022-10-01T22:11:57.098Z,0.73
2022-10-01T22:17:04.454Z,0.50
2022-10-01T22:22:21.298Z,0.60
2022-10-01T22:27:47.539Z,0.65
2022-10-01T22:33:10.543Z,0.65
2022-10-01T22:38:27.141Z,0.90
2022-10-01T22:43:29.351Z,0.88
2022-10-01T22:48:54.223Z,0.65
2022-10-01T22:54:07.632Z,0.73
2022-10-01T22:59:14.207Z,0.77
2022-10-01T23:04:49.101Z,0.90
2022-10-01T23:10:11.975Z,1.00
2022-10-01T23:15:25.903Z,0.80
2022-10-01T23:20:34.516Z,0.88
2022-10-01T23:25:57.812Z,0.88
2022-10-01T23:31:02.282Z,0.65
2022-10-01T23:36:29.106Z,0.90
2022-10-01T23:41:46.800Z,0.95
2022-10-01T23:46:51.621Z,0.50
2022-10-01T23:52:14.612Z,0.77
2022-10-01T23:57:22.395Z,0.90
